Time;durP1;ratioP1;P1;durP2;ratioP2;P2;SDS_P1;SDS_P2;PMS_P1;PMS_P2;Temp;Humidity;BMP_temperature;BMP_pressure;BME280_temperature;BME280_humidity;BME280_pressure;Samples;Min_cycle;Max_cycle;Signal;HPM_P1;HPM_P2
2023/05/04 00:03:23;;;;;;;;;16.00;14.75;;;;;;;;6490098;46;8931;-56
2023/05/04 00:09:26;;;;;;;;;18.00;17.25;;;;;;;;6490940;39;8910;-56
2023/05/04 00:15:29;;;;;;;;;15.00;12.75;;;;;;;;6490412;39;8883;-53
2023/05/04 00:21:33;;;;;;;;;19.00;16.33;;;;;;;;8208511;36;8907;-55
2023/05/04 00:27:38;;;;;;;;;17.25;17.25;;;;;;;;6490749;39;9009;-55
2023/05/04 00:33:41;;;;;;;;;11.50;9.00;;;;;;;;6490407;39;8883;-55
2023/05/04 00:39:43;;;;;;;;;15.50;15.25;;;;;;;;6490720;39;9475;-53
2023/05/04 00:45:47;;;;;;;;;15.75;15.25;;;;;;;;6489250;39;8914;-55
2023/05/04 00:51:53;;;;;;;;;18.00;17.75;;;;;;;;6491212;39;8839;-56
2023/05/04 00:57:56;;;;;;;;;17.50;17.50;;;;;;;;6489338;39;8974;-55
2023/05/04 01:04:00;;;;;;;;;20.75;16.50;;;;;;;;6489949;39;9554;-56
2023/05/04 01:10:19;;;;;;;;;18.25;18.25;;;;;;;;6488652;46;8998;-57
2023/05/04 01:16:21;;;;;;;;;22.75;19.50;;;;;;;;6488556;39;8851;-56
2023/05/04 01:22:24;;;;;;;;;23.33;20.33;;;;;;;;6488644;46;8970;-54
2023/05/04 01:29:06;;;;;;;;;24.75;22.75;;;;;;;;6487867;31;8953;-56
2023/05/04 01:35:12;;;;;;;;;20.25;20.25;;;;;;;;6487552;46;9078;-56
2023/05/04 01:41:16;;;;;;;;;15.75;15.75;;;;;;;;6488702;39;9002;-56
2023/05/04 01:47:19;;;;;;;;;27.75;24.25;;;;;;;;6487661;47;8883;-56
2023/05/04 01:53:23;;;;;;;;;21.75;19.00;;;;;;;;6487114;39;8867;-55
2023/05/04 01:59:29;;;;;;;;;22.00;20.50;;;;;;;;6489470;39;9019;-54
2023/05/04 02:05:31;;;;;;;;;23.75;20.00;;;;;;;;6491177;31;8919;-56
2023/05/04 02:11:36;;;;;;;;;20.00;20.00;;;;;;;;6488988;46;8903;-58
2023/05/04 02:17:39;;;;;;;;;25.75;21.75;;;;;;;;6489825;46;8948;-54
2023/05/04 02:23:41;;;;;;;;;18.50;17.75;;;;;;;;6489345;39;8879;-56
2023/05/04 02:29:43;;;;;;;;;24.67;23.00;;;;;;;;6489571;39;9014;-56
2023/05/04 02:35:46;;;;;;;;;23.00;19.75;;;;;;;;6490627;31;9551;-53
2023/05/04 02:41:49;;;;;;;;;26.00;23.75;;;;;;;;6489011;31;8946;-56
2023/05/04 02:47:55;;;;;;;;;17.50;17.50;;;;;;;;6489778;39;9507;-55
2023/05/04 02:53:57;;;;;;;;;25.00;21.00;;;;;;;;6489287;31;8887;-56
2023/05/04 03:00:00;;;;;;;;;28.00;23.00;;;;;;;;6489056;31;8961;-58
2023/05/04 03:06:05;;;;;;;;;20.25;17.00;;;;;;;;6490374;31;9055;-59
2023/05/04 03:12:07;;;;;;;;;26.25;22.00;;;;;;;;6488989;39;8939;-57
2023/05/04 03:18:09;;;;;;;;;27.50;25.00;;;;;;;;6488803;39;8923;-54
2023/05/04 03:24:15;;;;;;;;;24.25;24.25;;;;;;;;6488873;39;9563;-57
2023/05/04 03:30:19;;;;;;;;;26.00;23.00;;;;;;;;6488478;39;8978;-54
2023/05/04 03:36:21;;;;;;;;;23.25;22.00;;;;;;;;6489100;46;8928;-57
2023/05/04 03:42:25;;;;;;;;;34.75;29.25;;;;;;;;6488713;39;8915;-57
2023/05/04 03:48:29;;;;;;;;;27.50;25.00;;;;;;;;6489080;39;8887;-57
2023/05/04 03:54:31;;;;;;;;;33.75;30.50;;;;;;;;8206236;36;8976;-58
2023/05/04 04:07:18;;;;;;;;;28.25;28.25;;;;;;;;6483902;46;9059;-55
2023/05/04 04:13:20;;;;;;;;;34.25;30.50;;;;;;;;6491247;39;8855;-55
